createdAt,value
2019-03-24T00:03:51.291Z,88.00
2019-03-24T00:08:57.190Z,87.50
2019-03-24T00:14:03.095Z,87.80
2019-03-24T00:19:09.266Z,88.90
2019-03-24T00:24:15.136Z,89.00
2019-03-24T00:29:21.225Z,88.80
2019-03-24T00:34:27.264Z,88.90
2019-03-24T00:39:33.198Z,89.00
2019-03-24T00:44:39.358Z,89.50
2019-03-24T00:49:45.351Z,89.70
2019-03-24T00:54:51.213Z,89.30
2019-03-24T00:59:57.246Z,89.00
2019-03-24T01:05:03.089Z,89.70
2019-03-24T01:10:09.621Z,90.00
2019-03-24T01:15:15.739Z,90.50
2019-03-24T01:20:21.835Z,90.30
2019-03-24T01:25:27.791Z,90.40
2019-03-24T01:30:33.913Z,90.50
2019-03-24T01:35:39.822Z,90.70
2019-03-24T01:40:45.757Z,90.80
2019-03-24T01:45:58.659Z,90.90
2019-03-24T01:50:59.274Z,90.90
2019-03-24T01:56:05.364Z,90.90
2019-03-24T02:01:12.638Z,91.00
2019-03-24T02:06:18.745Z,91.00
2019-03-24T02:11:24.706Z,91.00
2019-03-24T02:16:30.779Z,90.90
2019-03-24T02:21:36.658Z,91.10
2019-03-24T02:26:42.717Z,91.10
2019-03-24T02:31:48.711Z,91.10
2019-03-24T02:36:54.786Z,91.20
2019-03-24T02:42:01.031Z,91.20
2019-03-24T02:47:07.018Z,91.40
2019-03-24T02:52:12.977Z,91.50
2019-03-24T02:57:19.013Z,91.60
2019-03-24T03:02:25.063Z,91.60
2019-03-24T03:07:31.054Z,91.40
2019-03-24T03:12:37.111Z,91.40
2019-03-24T03:17:43.161Z,91.50
2019-03-24T03:22:49.277Z,91.90
2019-03-24T03:27:55.193Z,91.80
2019-03-24T03:33:02.743Z,91.90
2019-03-24T03:38:08.924Z,92.30
2019-03-24T03:43:14.888Z,91.90
2019-03-24T03:48:20.782Z,92.00
2019-03-24T03:53:26.768Z,91.80
2019-03-24T03:58:32.861Z,92.00
2019-03-24T04:03:38.806Z,92.20
2019-03-24T04:08:44.923Z,91.90
2019-03-24T04:13:50.742Z,92.20
2019-03-24T04:18:56.695Z,92.40
2019-03-24T04:24:02.807Z,92.40
2019-03-24T04:29:08.940Z,92.70
2019-03-24T04:34:14.789Z,92.70
2019-03-24T04:39:20.840Z,92.70
2019-03-24T04:44:27.088Z,92.80
2019-03-24T04:49:33.187Z,93.10
2019-03-24T04:54:39.235Z,93.00
2019-03-24T04:59:45.306Z,93.00
2019-03-24T05:04:51.500Z,92.90
2019-03-24T05:09:58.214Z,92.50
2019-03-24T05:15:04.372Z,92.70
2019-03-24T05:20:10.771Z,92.50
2019-03-24T05:25:16.625Z,92.70
2019-03-24T05:30:22.716Z,92.80
2019-03-24T05:35:28.918Z,93.10
2019-03-24T05:40:35.017Z,93.10
2019-03-24T05:45:41.129Z,92.90
2019-03-24T05:50:47.017Z,93.00
2019-03-24T05:55:53.013Z,93.30
2019-03-24T06:00:58.992Z,93.40
2019-03-24T06:06:04.986Z,93.20
2019-03-24T06:11:10.804Z,93.10
2019-03-24T06:16:16.778Z,93.10
2019-03-24T06:21:22.747Z,93.00
2019-03-24T06:26:28.508Z,92.80
2019-03-24T06:31:34.511Z,92.90
2019-03-24T06:36:40.482Z,93.50
2019-03-24T06:41:46.587Z,93.20
2019-03-24T06:46:52.564Z,93.40
2019-03-24T06:51:58.529Z,93.40
2019-03-24T06:57:04.482Z,93.60
2019-03-24T07:02:10.639Z,94.00
2019-03-24T07:07:16.766Z,93.90
2019-03-24T07:12:22.873Z,94.20
2019-03-24T07:17:28.718Z,94.00
2019-03-24T07:22:34.760Z,93.90
2019-03-24T07:27:40.721Z,93.90
2019-03-24T07:32:46.828Z,93.90
2019-03-24T07:37:52.957Z,93.70
2019-03-24T07:42:59.005Z,93.90
2019-03-24T07:48:18.623Z,93.90
2019-03-24T07:53:27.162Z,94.00
2019-03-24T07:58:45.945Z,94.10
2019-03-24T08:03:50.557Z,94.00
2019-03-24T08:08:57.940Z,94.20
2019-03-24T08:14:03.924Z,94.10
2019-03-24T08:19:13.054Z,94.10
2019-03-24T08:24:18.955Z,93.90
2019-03-24T08:29:25.213Z,93.60
2019-03-24T08:34:31.395Z,93.30
2019-03-24T08:39:37.565Z,93.20
2019-03-24T08:44:45.433Z,92.90
2019-03-24T08:49:51.604Z,92.80
2019-03-24T08:54:59.701Z,92.50
2019-03-24T09:00:08.145Z,92.20
2019-03-24T09:05:14.537Z,91.30
2019-03-24T09:10:20.489Z,90.80
2019-03-24T09:15:32.508Z,90.50
2019-03-24T09:20:41.910Z,89.80
2019-03-24T09:25:46.519Z,88.80
2019-03-24T09:30:52.765Z,87.70
2019-03-24T09:35:58.885Z,86.90
2019-03-24T09:41:04.923Z,85.50
2019-03-24T09:46:11.089Z,84.70
2019-03-24T09:51:17.244Z,83.10
2019-03-24T09:56:23.562Z,82.10
2019-03-24T10:01:30.388Z,81.20
2019-03-24T10:06:36.557Z,81.30
2019-03-24T10:11:42.836Z,81.10
2019-03-24T10:16:48.940Z,83.40
2019-03-24T10:21:55.055Z,84.10
2019-03-24T10:27:01.045Z,78.70
2019-03-24T10:32:07.229Z,76.80
2019-03-24T10:37:13.333Z,77.40
2019-03-24T10:42:19.444Z,77.10
2019-03-24T10:47:25.559Z,77.70
2019-03-24T10:52:31.818Z,78.50
2019-03-24T10:57:38.103Z,76.20
2019-03-24T11:02:44.350Z,75.20
2019-03-24T11:07:50.378Z,74.10
2019-03-24T11:12:56.616Z,74.20
2019-03-24T11:18:02.765Z,73.20
2019-03-24T11:23:18.551Z,72.10
2019-03-24T11:28:24.620Z,72.30
2019-03-24T11:33:40.292Z,71.50
2019-03-24T11:38:46.808Z,70.60
2019-03-24T11:43:52.866Z,70.10
2019-03-24T11:48:58.833Z,69.90
2019-03-24T11:54:05.119Z,69.40
2019-03-24T11:59:11.327Z,70.00
2019-03-24T12:04:17.501Z,68.40
2019-03-24T12:09:23.500Z,68.30
2019-03-24T12:14:29.811Z,66.90
2019-03-24T12:19:36.848Z,66.90
2019-03-24T12:24:42.997Z,65.80
2019-03-24T12:29:49.117Z,66.40
2019-03-24T12:34:55.415Z,67.40
2019-03-24T12:40:01.674Z,65.70
2019-03-24T12:45:08.879Z,63.40
2019-03-24T12:50:15.096Z,62.30
2019-03-24T12:55:21.222Z,63.00
2019-03-24T13:00:41.087Z,62.50
2019-03-24T13:05:47.197Z,62.20
2019-03-24T13:10:53.439Z,62.50
2019-03-24T13:15:59.949Z,62.20
2019-03-24T13:21:05.877Z,61.90
2019-03-24T13:26:11.935Z,61.90
2019-03-24T13:31:18.217Z,61.20
2019-03-24T13:36:24.469Z,60.80
2019-03-24T13:41:30.471Z,60.10
2019-03-24T13:46:36.666Z,58.80
2019-03-24T13:51:42.998Z,60.20
2019-03-24T13:56:49.231Z,59.40
2019-03-24T14:01:55.679Z,59.10
2019-03-24T14:07:01.689Z,58.60
2019-03-24T14:12:07.863Z,58.70
2019-03-24T14:17:14.247Z,58.30
2019-03-24T14:22:20.324Z,57.00
2019-03-24T14:27:26.305Z,58.10
2019-03-24T14:32:32.507Z,58.20
2019-03-24T14:37:38.792Z,58.10
2019-03-24T14:42:44.621Z,57.30
2019-03-24T14:47:50.722Z,56.60
2019-03-24T14:52:56.904Z,57.40
2019-03-24T14:58:03.293Z,57.30
2019-03-24T15:03:09.968Z,56.80
2019-03-24T15:08:16.264Z,56.60
2019-03-24T15:13:22.666Z,55.60
2019-03-24T15:18:28.615Z,54.60
2019-03-24T15:23:34.503Z,54.80
2019-03-24T15:28:40.581Z,54.90
2019-03-24T15:33:46.590Z,55.10
2019-03-24T15:38:52.752Z,55.20
2019-03-24T15:44:01.908Z,54.90
2019-03-24T15:49:08.051Z,55.40
2019-03-24T15:54:14.086Z,54.60
2019-03-24T15:59:20.190Z,54.80
2019-03-24T16:04:26.282Z,54.10
2019-03-24T16:09:32.382Z,54.40
2019-03-24T16:14:38.606Z,53.90
2019-03-24T16:19:44.782Z,53.90
2019-03-24T16:24:50.673Z,53.80
2019-03-24T16:29:56.823Z,53.20
2019-03-24T16:35:03.084Z,54.10
2019-03-24T16:40:09.487Z,54.70
2019-03-24T16:45:16.024Z,54.30
2019-03-24T16:50:22.087Z,54.40
2019-03-24T16:55:28.238Z,54.30
2019-03-24T17:00:34.298Z,54.20
2019-03-24T17:05:40.544Z,54.10
2019-03-24T17:10:47.111Z,54.50
2019-03-24T17:15:53.444Z,54.80
2019-03-24T17:20:59.718Z,54.60
2019-03-24T17:26:05.728Z,55.10
2019-03-24T17:31:11.823Z,54.90
2019-03-24T17:36:17.964Z,55.20
2019-03-24T17:41:24.187Z,55.70
2019-03-24T17:46:39.671Z,55.60
2019-03-24T17:51:46.116Z,55.50
2019-03-24T17:56:52.238Z,56.10
2019-03-24T18:01:58.319Z,56.10
2019-03-24T18:07:04.311Z,55.60
2019-03-24T18:12:10.370Z,55.60
2019-03-24T18:17:16.353Z,55.80
2019-03-24T18:22:22.552Z,56.30
2019-03-24T18:27:28.797Z,56.20
2019-03-24T18:32:35.024Z,56.50
2019-03-24T18:37:41.074Z,56.90
2019-03-24T18:42:49.274Z,57.00
2019-03-24T18:47:55.395Z,55.60
2019-03-24T18:53:01.647Z,55.00
2019-03-24T18:58:07.993Z,56.00
2019-03-24T19:03:14.070Z,61.70
2019-03-24T19:08:20.070Z,58.30
2019-03-24T19:13:26.924Z,57.90
2019-03-24T19:18:33.253Z,57.90
2019-03-24T19:23:39.959Z,58.10
2019-03-24T19:28:46.189Z,58.20
2019-03-24T19:33:52.347Z,58.20
2019-03-24T19:38:58.881Z,58.10
2019-03-24T19:44:05.157Z,57.30
2019-03-24T19:49:11.404Z,57.40
2019-03-24T19:54:17.641Z,55.40
2019-03-24T19:59:23.887Z,56.10
2019-03-24T20:04:30.069Z,56.70
2019-03-24T20:09:36.221Z,56.80
2019-03-24T20:14:42.259Z,57.10
2019-03-24T20:19:48.274Z,57.20
2019-03-24T20:24:55.624Z,57.60
2019-03-24T20:30:01.752Z,56.20
2019-03-24T20:35:09.110Z,55.70
2019-03-24T20:40:15.650Z,56.50
2019-03-24T20:45:21.833Z,57.10
2019-03-24T20:50:27.970Z,56.80
2019-03-24T20:55:34.528Z,57.20
2019-03-24T21:00:40.978Z,57.60
2019-03-24T21:05:47.056Z,57.40
2019-03-24T21:10:53.164Z,57.60
2019-03-24T21:15:59.478Z,58.40
2019-03-24T21:21:06.164Z,58.80
2019-03-24T21:26:13.623Z,59.20
2019-03-24T21:31:19.852Z,59.60
2019-03-24T21:36:25.947Z,59.80
2019-03-24T21:41:32.665Z,60.10
2019-03-24T21:46:38.963Z,60.70
2019-03-24T21:51:44.995Z,61.10
2019-03-24T21:56:51.407Z,61.50
2019-03-24T22:01:57.716Z,61.90
2019-03-24T22:07:06.469Z,62.20
2019-03-24T22:12:12.867Z,62.60
2019-03-24T22:17:19.249Z,63.00
2019-03-24T22:22:25.781Z,63.10
2019-03-24T22:27:32.328Z,63.60
2019-03-24T22:32:38.761Z,63.90
2019-03-24T22:37:44.751Z,64.20
2019-03-24T22:42:51.024Z,64.40
2019-03-24T22:47:57.291Z,64.70
2019-03-24T22:53:03.397Z,65.00
2019-03-24T22:58:10.699Z,65.40
2019-03-24T23:03:16.762Z,65.70
2019-03-24T23:08:22.726Z,65.80
2019-03-24T23:13:28.816Z,66.10
2019-03-24T23:18:34.780Z,66.40
2019-03-24T23:23:41.242Z,67.10
2019-03-24T23:28:47.211Z,67.30
2019-03-24T23:33:53.418Z,67.90
2019-03-24T23:38:59.312Z,68.20
2019-03-24T23:44:05.521Z,68.10
2019-03-24T23:49:22.294Z,69.20
2019-03-24T23:54:28.481Z,68.70
2019-03-24T23:59:35.169Z,69.10
